Time;durP1;ratioP1;P1;durP2;ratioP2;P2;SDS_P1;SDS_P2;PMS_P1;PMS_P2;Temp;Humidity;BMP_temperature;BMP_pressure;BME280_temperature;BME280_humidity;BME280_pressure;Samples;Min_cycle;Max_cycle;Signal;HPM_P1;HPM_P2
2022/09/29 00:01:51;;;;;;;3.40;1.20;;;;;;;12.51;77.02;95622.19;5075243;28;20072;-64
2022/09/29 00:04:18;;;;;;;2.15;1.15;;;;;;;12.53;77.00;95623.88;5075187;28;20048;-64
2022/09/29 00:06:46;;;;;;;1.90;1.30;;;;;;;12.52;77.13;95623.03;5074773;28;20051;-64
2022/09/29 00:09:14;;;;;;;1.60;1.20;;;;;;;12.57;76.71;95620.97;5075028;28;20049;-64
2022/09/29 00:11:41;;;;;;;0.82;0.82;;;;;;;12.56;76.06;95621.06;5074983;28;20052;-64
2022/09/29 00:14:08;;;;;;;1.08;0.98;;;;;;;12.59;75.95;95611.25;5074861;28;20052;-64
2022/09/29 00:16:35;;;;;;;7.45;0.90;;;;;;;12.55;76.08;95608.91;5074985;28;20518;-64
2022/09/29 00:19:03;;;;;;;0.98;0.88;;;;;;;12.55;75.92;95603.66;5075012;28;20488;-64
2022/09/29 00:21:30;;;;;;;1.13;1.02;;;;;;;12.49;75.99;95596.97;5074713;28;20041;-64
2022/09/29 00:24:01;;;;;;;0.70;0.70;;;;;;;12.54;76.00;95604.56;5074755;28;20099;-65
2022/09/29 00:26:29;;;;;;;1.27;0.85;;;;;;;12.53;75.66;95608.13;5074918;28;20088;-64
2022/09/29 00:28:59;;;;;;;0.82;0.82;;;;;;;12.50;75.78;95607.38;5074639;28;20059;-64
2022/09/29 00:31:28;;;;;;;1.58;1.00;;;;;;;12.47;75.96;95611.97;5074830;28;20052;-64
2022/09/29 00:33:56;;;;;;;0.70;0.70;;;;;;;12.48;76.36;95609.28;5074940;28;20058;-64
2022/09/29 00:36:23;;;;;;;1.23;0.80;;;;;;;12.50;76.59;95614.41;5073635;28;20127;-64
2022/09/29 00:38:51;;;;;;;1.10;1.00;;;;;;;12.55;76.27;95628.09;5074363;28;20123;-64
2022/09/29 00:41:23;;;;;;;0.80;0.80;;;;;;;12.57;76.30;95625.38;5074259;28;20049;-64
2022/09/29 00:43:58;;;;;;;0.65;0.65;;;;;;;12.56;76.11;95621.06;5074131;28;20126;-64
2022/09/29 00:46:32;;;;;;;1.02;0.93;;;;;;;12.52;75.95;95628.25;5074375;28;20052;-64
2022/09/29 00:49:05;;;;;;;0.95;0.77;;;;;;;12.45;75.89;95626.97;5074141;28;20093;-65
2022/09/29 00:51:36;;;;;;;1.17;0.70;;;;;;;12.35;75.47;95638.03;5074130;28;20127;-64
2022/09/29 00:54:02;;;;;;;;;;;;;;;12.31;76.48;95630.44;5074525;28;20141;-65
2022/09/29 00:56:31;;;;;;;0.65;0.65;;;;;;;12.30;76.64;95628.72;5074209;28;20007;-64
2022/09/29 00:59:03;;;;;;;0.98;0.93;;;;;;;12.25;76.77;95635.09;5073968;28;20482;-64
2022/09/29 01:01:32;;;;;;;0.88;0.70;;;;;;;12.21;76.63;95627.47;5073813;28;20131;-64
2022/09/29 01:04:03;;;;;;;0.80;0.80;;;;;;;12.20;76.79;95625.81;5073882;28;20044;-64
2022/09/29 01:06:35;;;;;;;0.70;0.70;;;;;;;12.06;77.68;95632.66;5073669;28;20462;-64
2022/09/29 01:09:06;;;;;;;0.70;0.70;;;;;;;12.05;78.24;95627.53;5073832;28;20076;-65
2022/09/29 01:11:34;;;;;;;0.77;0.70;;;;;;;11.99;78.34;95624.34;5073764;28;20045;-64
2022/09/29 01:14:05;;;;;;;0.82;0.68;;;;;;;12.00;78.09;95619.91;5073901;28;20048;-64
2022/09/29 01:16:33;;;;;;;0.90;0.90;;;;;;;12.00;78.09;95614.69;5073581;28;20087;-64
2022/09/29 01:19:06;;;;;;;1.70;1.00;;;;;;;11.93;78.70;95616.81;5073687;28;20098;-64
2022/09/29 01:21:43;;;;;;;0.70;0.70;;;;;;;11.92;78.57;95609.88;5073566;28;20537;-64
2022/09/29 01:24:36;;;;;;;1.08;0.95;;;;;;;11.98;78.53;95627.06;5073478;28;20067;-64
2022/09/29 01:27:13;;;;;;;1.20;1.10;;;;;;;11.97;78.30;95630.59;5073515;28;20050;-64
2022/09/29 01:30:15;;;;;;;1.00;0.80;;;;;;;12.02;78.67;95625.94;5073539;28;20052;-64
2022/09/29 01:33:12;;;;;;;0.90;0.70;;;;;;;12.01;78.28;95626.84;5073685;28;20128;-64
2022/09/29 01:35:48;;;;;;;3.65;0.93;;;;;;;12.04;78.07;95629.28;5070007;28;20045;-64
2022/09/29 01:38:29;;;;;;;1.20;0.85;;;;;;;12.03;77.83;95624.13;5073422;28;20044;-64
2022/09/29 01:41:00;;;;;;;;;;;;;;;12.04;78.38;95628.47;5073734;28;20044;-64
2022/09/29 01:43:33;;;;;;;0.85;0.80;;;;;;;11.95;77.96;95622.81;5073208;28;19921;-64
2022/09/29 01:46:04;;;;;;;0.80;0.80;;;;;;;11.88;78.46;95624.09;5073497;28;20083;-64
2022/09/29 01:48:37;;;;;;;1.00;0.90;;;;;;;11.88;78.72;95621.47;5072931;28;20046;-64
2022/09/29 01:51:11;;;;;;;0.90;0.90;;;;;;;11.94;78.32;95617.66;5073225;28;20045;-64
2022/09/29 01:53:43;;;;;;;0.95;0.85;;;;;;;11.88;77.47;95622.34;5073179;28;20140;-64
2022/09/29 01:56:15;;;;;;;0.82;0.82;;;;;;;11.83;78.17;95624.34;5073169;28;20494;-64
2022/09/29 01:58:49;;;;;;;0.73;0.70;;;;;;;11.84;78.22;95615.59;5053273;28;20124;-64
2022/09/29 02:01:20;;;;;;;0.80;0.80;;;;;;;11.81;78.72;95615.75;5053190;28;20491;-64
2022/09/29 02:03:52;;;;;;;0.93;0.93;;;;;;;11.84;78.81;95612.97;5052895;28;20044;-64
2022/09/29 02:06:23;;;;;;;0.90;0.90;;;;;;;11.86;78.48;95597.97;5052746;28;20080;-64
2022/09/29 02:08:54;;;;;;;0.88;0.75;;;;;;;11.85;78.53;95593.69;5052980;28;20124;-64
2022/09/29 02:11:21;;;;;;;1.05;0.98;;;;;;;11.82;78.90;95606.09;5053100;28;20129;-64
2022/09/29 02:13:53;;;;;;;0.90;0.90;;;;;;;11.82;78.63;95596.47;5052984;28;20133;-64
2022/09/29 02:16:24;;;;;;;1.77;1.02;;;;;;;11.85;78.50;95603.31;5052918;28;20124;-64
2022/09/29 02:18:55;;;;;;;1.00;0.90;;;;;;;11.87;78.35;95604.91;5052810;28;20076;-64
2022/09/29 02:21:22;;;;;;;;;;;;;;;11.85;78.14;95604.16;5053446;28;20045;-64
2022/09/29 02:23:49;;;;;;;0.80;0.80;;;;;;;11.82;78.13;95606.09;5052954;28;19920;-64
2022/09/29 02:26:19;;;;;;;0.98;0.80;;;;;;;11.79;78.01;95615.00;5052873;28;20052;-64
2022/09/29 02:28:46;;;;;;;1.00;0.90;;;;;;;11.75;77.98;95623.97;5052900;28;20071;-64
2022/09/29 02:31:14;;;;;;;1.92;0.80;;;;;;;11.71;77.73;95623.28;5052780;28;20056;-64
2022/09/29 02:33:41;;;;;;;1.52;1.27;;;;;;;11.67;77.96;95634.03;5052858;28;20449;-64
2022/09/29 02:36:22;;;;;;;1.10;0.82;;;;;;;11.61;78.52;95640.47;5052784;28;20045;-64
2022/09/29 02:38:53;;;;;;;;;;;;;;;11.62;78.30;95644.78;5053178;28;20053;-63
2022/09/29 02:41:33;;;;;;;0.73;0.73;;;;;;;11.55;78.28;95644.28;5052789;28;19921;-64
2022/09/29 02:44:23;;;;;;;0.93;0.93;;;;;;;11.55;78.69;95643.44;5052615;28;20502;-64
2022/09/29 02:47:20;;;;;;;1.10;0.90;;;;;;;11.53;79.23;95629.59;5052694;28;20045;-64
2022/09/29 02:50:03;;;;;;;1.17;1.00;;;;;;;11.47;78.63;95630.78;5052609;28;20049;-64
2022/09/29 02:52:43;;;;;;;1.80;1.33;;;;;;;11.46;78.70;95637.78;5052691;28;20057;-64
2022/09/29 02:55:18;;;;;;;1.30;1.20;;;;;;;11.37;80.68;95640.91;5052717;28;20131;-64
2022/09/29 02:57:51;;;;;;;1.75;1.33;;;;;;;11.29;80.98;95632.66;5052517;28;20132;-63
2022/09/29 03:00:21;;;;;;;1.33;0.90;;;;;;;11.30;80.72;95629.94;5054906;28;20502;-64
2022/09/29 03:02:48;;;;;;;1.27;0.80;;;;;;;11.31;79.58;95631.63;5056211;28;20102;-64
2022/09/29 03:05:17;;;;;;;1.10;1.00;;;;;;;11.31;80.40;95631.63;5056199;28;20069;-64
2022/09/29 03:07:46;;;;;;;2.72;1.17;;;;;;;11.27;80.96;95637.13;5055928;28;20163;-64
2022/09/29 03:10:16;;;;;;;1.15;1.13;;;;;;;11.28;80.68;95641.41;5056071;28;20049;-64
2022/09/29 03:12:43;;;;;;;1.00;1.00;;;;;;;11.28;79.31;95649.25;5055965;28;20127;-64
2022/09/29 03:15:12;;;;;;;4.68;1.30;;;;;;;11.20;79.27;95647.91;5056020;28;20136;-63
2022/09/29 03:17:39;;;;;;;1.30;1.20;;;;;;;11.20;79.40;95647.09;5056085;28;20049;-64
2022/09/29 03:20:07;;;;;;;2.67;1.17;;;;;;;11.19;79.80;95651.47;5056008;28;20495;-64
2022/09/29 03:22:34;;;;;;;4.38;1.23;;;;;;;11.14;79.96;95653.50;5055844;28;20045;-64
2022/09/29 03:25:04;;;;;;;1.25;1.10;;;;;;;11.12;80.03;95657.97;5055695;28;20049;-64
2022/09/29 03:27:32;;;;;;;0.77;0.77;;;;;;;11.11;80.54;95653.69;5056025;28;20049;-64
2022/09/29 03:29:59;;;;;;;1.05;0.95;;;;;;;11.06;82.31;95660.91;5055652;28;20106;-64
2022/09/29 03:32:26;;;;;;;1.27;1.17;;;;;;;11.07;81.88;95663.44;5055893;28;20045;-64
2022/09/29 03:34:53;;;;;;;0.93;0.93;;;;;;;11.10;81.51;95667.66;5055659;28;20107;-64
2022/09/29 03:37:21;;;;;;;1.00;0.95;;;;;;;11.08;81.53;95672.97;5055616;28;20453;-64
2022/09/29 03:39:48;;;;;;;1.20;1.10;;;;;;;11.06;82.57;95669.63;5055427;28;20045;-64
2022/09/29 03:42:17;;;;;;;0.80;0.80;;;;;;;11.07;82.71;95675.69;5055541;28;20402;-63
2022/09/29 03:44:44;;;;;;;1.05;1.00;;;;;;;11.07;82.00;95668.69;5055368;28;20049;-64
2022/09/29 03:47:11;;;;;;;0.80;0.80;;;;;;;11.05;81.67;95670.53;5055532;28;20132;-63
2022/09/29 03:49:38;;;;;;;1.15;1.00;;;;;;;11.08;82.53;95666.94;5055270;28;20088;-64
2022/09/29 03:52:06;;;;;;;0.80;0.80;;;;;;;11.09;83.17;95661.63;5055370;28;20045;-63
2022/09/29 03:54:33;;;;;;;0.70;0.70;;;;;;;11.09;82.85;95666.84;5055224;28;20044;-64
2022/09/29 03:57:00;;;;;;;0.45;0.45;;;;;;;11.11;82.47;95669.38;5055206;28;20059;-63
2022/09/29 03:59:29;;;;;;;0.90;0.90;;;;;;;11.09;82.79;95658.13;5055129;28;20049;-64
2022/09/29 04:01:56;;;;;;;0.38;0.38;;;;;;;11.15;84.11;95643.88;5055163;28;20505;-63
2022/09/29 04:04:23;;;;;;;0.43;0.43;;;;;;;11.20;83.71;95650.53;5055185;28;20166;-63
2022/09/29 04:06:50;;;;;;;0.55;0.55;;;;;;;11.24;83.72;95648.59;5054960;28;20135;-64
2022/09/29 04:09:18;;;;;;;0.60;0.60;;;;;;;11.28;83.90;95644.88;5055028;28;20059;-63
2022/09/29 04:11:45;;;;;;;0.55;0.55;;;;;;;11.36;84.18;95653.19;5054788;28;20056;-64
2022/09/29 04:14:13;;;;;;;0.75;0.75;;;;;;;11.42;86.28;95649.38;5054844;28;20053;-64
2022/09/29 04:16:42;;;;;;;0.40;0.40;;;;;;;11.47;86.27;95647.31;5054873;28;20045;-64
2022/09/29 04:19:09;;;;;;;0.50;0.50;;;;;;;11.48;86.17;95641.19;5054903;28;20057;-64
2022/09/29 04:21:36;;;;;;;0.75;0.75;;;;;;;11.57;86.81;95652.91;5054820;28;20068;-64
2022/09/29 04:24:04;;;;;;;0.68;0.68;;;;;;;11.66;86.16;95663.78;5054709;28;20453;-63
2022/09/29 04:26:31;;;;;;;0.95;0.85;;;;;;;11.73;85.68;95670.34;5054566;28;20064;-63
2022/09/29 04:28:59;;;;;;;0.80;0.80;;;;;;;11.82;84.97;95672.47;5054545;28;20110;-64
2022/09/29 04:31:26;;;;;;;0.52;0.52;;;;;;;11.88;84.65;95674.75;5054696;28;20041;-63
2022/09/29 04:33:55;;;;;;;0.47;0.47;;;;;;;11.96;84.65;95676.94;5054570;28;20074;-64
2022/09/29 04:36:22;;;;;;;0.65;0.65;;;;;;;12.03;84.19;95676.56;5054649;28;20049;-64
2022/09/29 04:38:50;;;;;;;0.47;0.47;;;;;;;12.09;84.01;95671.00;5054608;28;20053;-63
2022/09/29 04:41:18;;;;;;;2.25;0.93;;;;;;;12.16;83.79;95679.34;5054743;28;20049;-64
2022/09/29 04:43:45;;;;;;;0.70;0.70;;;;;;;12.24;83.48;95671.88;5054470;28;20103;-64
2022/09/29 04:46:13;;;;;;;0.50;0.50;;;;;;;12.34;83.03;95670.41;5054461;28;20056;-64
2022/09/29 04:48:40;;;;;;;0.73;0.60;;;;;;;12.43;82.93;95662.94;5054452;28;20053;-64
2022/09/29 04:51:10;;;;;;;0.45;0.45;;;;;;;12.49;82.44;95660.78;5054510;28;20051;-63
2022/09/29 04:53:37;;;;;;;0.90;0.57;;;;;;;12.54;82.38;95659.66;5054437;28;20079;-64
2022/09/29 04:56:08;;;;;;;0.68;0.68;;;;;;;12.69;82.79;95661.38;5054151;28;20049;-64
2022/09/29 04:58:35;;;;;;;0.65;0.65;;;;;;;13.38;81.62;95665.06;5054112;28;20498;-64
2022/09/29 05:01:08;;;;;;;1.20;0.63;;;;;;;14.51;77.87;95669.22;5053928;28;20084;-64
2022/09/29 05:03:35;;;;;;;0.57;0.50;;;;;;;15.70;71.55;95680.34;5054054;28;20415;-64
2022/09/29 05:06:03;;;;;;;0.50;0.50;;;;;;;16.92;67.96;95679.31;5053838;28;20052;-64
2022/09/29 05:08:32;;;;;;;0.60;0.60;;;;;;;18.08;63.75;95683.50;5053975;28;20418;-65
2022/09/29 05:10:59;;;;;;;0.60;0.60;;;;;;;19.24;59.69;95680.94;5053872;28;20056;-65
2022/09/29 05:13:27;;;;;;;0.40;0.40;;;;;;;20.35;57.00;95703.13;5053866;28;20052;-65
2022/09/29 05:15:56;;;;;;;2.83;0.50;;;;;;;21.39;53.54;95694.50;5053738;28;20132;-65
2022/09/29 05:18:23;;;;;;;0.50;0.50;;;;;;;21.94;50.76;95701.66;5053794;28;20048;-65
2022/09/29 05:20:51;;;;;;;0.60;0.50;;;;;;;21.66;50.77;95698.16;5053685;28;20460;-65
2022/09/29 05:23:18;;;;;;;0.75;0.47;;;;;;;21.11;52.78;95705.09;5053081;28;20041;-65
2022/09/29 05:25:46;;;;;;;0.43;0.43;;;;;;;20.48;54.33;95708.13;5053547;28;21262;-65
2022/09/29 05:28:15;;;;;;;0.40;0.40;;;;;;;19.95;55.62;95704.84;5053580;28;20049;-64
2022/09/29 05:30:42;;;;;;;0.30;0.30;;;;;;;19.42;56.90;95694.38;5053476;28;20045;-65
2022/09/29 05:33:09;;;;;;;0.63;0.52;;;;;;;19.01;57.43;95706.75;5053367;28;20140;-65
2022/09/29 05:35:37;;;;;;;0.77;0.55;;;;;;;18.63;58.76;95703.75;5053508;28;20487;-64
2022/09/29 05:38:04;;;;;;;0.50;0.40;;;;;;;18.34;59.74;95702.56;5053357;28;20053;-64
2022/09/29 05:40:31;;;;;;;0.63;0.63;;;;;;;18.52;60.64;95694.91;5053369;28;20415;-64
2022/09/29 05:43:00;;;;;;;0.50;0.50;;;;;;;19.52;58.08;95686.47;5053347;28;20072;-64
2022/09/29 05:45:28;;;;;;;0.47;0.47;;;;;;;20.33;54.75;95689.97;5053346;28;20044;-65
2022/09/29 05:47:55;;;;;;;0.30;0.30;;;;;;;21.50;51.76;95690.81;5053307;28;20075;-64
2022/09/29 05:50:22;;;;;;;0.63;0.38;;;;;;;22.93;49.14;95694.69;5053290;28;20075;-65
2022/09/29 05:52:51;;;;;;;0.50;0.50;;;;;;;24.30;45.88;95690.44;5053253;28;20053;-66
2022/09/29 05:55:19;;;;;;;0.40;0.32;;;;;;;25.30;43.51;95682.34;5053211;28;20052;-65
2022/09/29 05:57:49;;;;;;;0.60;0.47;;;;;;;26.36;42.03;95692.75;5053224;28;20048;-66
2022/09/29 06:00:17;;;;;;;0.30;0.30;;;;;;;27.00;40.54;95684.53;5053276;28;20052;-63
2022/09/29 06:02:45;;;;;;;0.47;0.47;;;;;;;27.82;39.45;95681.94;5053025;28;20056;-64
2022/09/29 06:05:12;;;;;;;0.57;0.40;;;;;;;28.63;37.83;95677.41;5052949;28;20135;-66
2022/09/29 06:07:39;;;;;;;0.38;0.30;;;;;;;29.52;35.06;95668.06;5052911;28;20073;-64
2022/09/29 06:10:06;;;;;;;0.63;0.63;;;;;;;30.26;33.72;95673.81;5053030;28;20056;-65
2022/09/29 06:12:37;;;;;;;0.57;0.40;;;;;;;30.61;33.69;95675.47;5052938;28;20057;-65
2022/09/29 06:15:05;;;;;;;0.47;0.40;;;;;;;30.82;31.72;95672.84;5052980;28;20118;-66
2022/09/29 06:17:34;;;;;;;0.75;0.40;;;;;;;30.67;30.91;95676.50;5053037;28;20398;-64
2022/09/29 06:20:02;;;;;;;0.38;0.38;;;;;;;30.60;31.34;95671.13;5053016;28;20127;-64
2022/09/29 06:22:29;;;;;;;0.30;0.30;;;;;;;30.89;30.95;95684.44;5053003;28;20475;-67
2022/09/29 06:24:57;;;;;;;0.10;0.10;;;;;;;30.97;30.10;95691.50;5052918;28;20398;-64
2022/09/29 06:27:24;;;;;;;0.40;0.40;;;;;;;31.38;29.27;95689.59;5052908;28;20052;-67
2022/09/29 06:29:51;;;;;;;0.50;0.50;;;;;;;31.61;29.41;95686.44;5052846;28;20624;-65
2022/09/29 06:32:18;;;;;;;0.40;0.40;;;;;;;31.99;29.50;95692.13;5052812;28;20132;-66
2022/09/29 06:37:38;;;;;;;0.50;0.50;;;;;;;32.07;29.40;95688.34;5056783;28;20179;-66
2022/09/29 06:40:08;;;;;;;0.50;0.40;;;;;;;32.22;28.87;95679.94;5056562;28;20418;-66
2022/09/29 06:42:35;;;;;;;0.63;0.50;;;;;;;32.35;28.69;95682.56;5056629;28;20051;-66
2022/09/29 06:45:02;;;;;;;0.20;0.20;;;;;;;32.48;29.11;95681.66;5056498;28;20049;-64
2022/09/29 06:47:29;;;;;;;0.85;0.47;;;;;;;32.56;29.07;95674.34;5056636;28;20053;-66
2022/09/29 06:50:00;;;;;;;0.55;0.40;;;;;;;32.37;29.21;95672.34;5056521;28;20060;-66
2022/09/29 06:52:27;;;;;;;0.30;0.30;;;;;;;32.27;29.71;95667.41;5056605;28;20045;-65
2022/09/29 06:54:55;;;;;;;0.60;0.60;;;;;;;32.03;29.77;95669.84;5056592;28;20461;-67
2022/09/29 06:57:22;;;;;;;0.40;0.40;;;;;;;31.61;30.59;95675.63;5056340;28;20483;-65
2022/09/29 06:59:49;;;;;;;0.57;0.57;;;;;;;31.25;31.54;95688.56;5056325;28;20048;-64
2022/09/29 07:02:16;;;;;;;0.30;0.30;;;;;;;30.93;32.21;95687.53;5056746;28;20441;-64
2022/09/29 07:04:43;;;;;;;0.50;0.50;;;;;;;30.91;33.41;95687.75;5056229;28;20387;-64
2022/09/29 07:07:12;;;;;;;0.20;0.20;;;;;;;30.78;32.28;95691.28;5056107;28;20081;-64
2022/09/29 07:09:39;;;;;;;1.20;0.40;;;;;;;30.50;32.52;95694.97;5056095;28;20052;-66
2022/09/29 07:12:06;;;;;;;0.60;0.32;;;;;;;30.47;33.19;95693.53;5055997;28;20087;-67
2022/09/29 07:14:33;;;;;;;0.50;0.50;;;;;;;30.52;33.21;95701.00;5056094;28;20474;-67
2022/09/29 07:17:01;;;;;;;0.20;0.20;;;;;;;30.61;32.94;95704.34;5056073;28;20124;-67
2022/09/29 07:19:28;;;;;;;0.40;0.40;;;;;;;30.38;33.75;95694.75;5056004;28;20045;-64
2022/09/29 07:21:55;;;;;;;0.30;0.30;;;;;;;30.21;33.68;95691.59;5055923;28;20095;-66
2022/09/29 07:24:25;;;;;;;2.95;0.52;;;;;;;30.21;33.62;95686.22;5055726;28;20111;-65
2022/09/29 07:26:52;;;;;;;0.30;0.30;;;;;;;30.21;33.40;95694.28;5055873;28;20045;-65
2022/09/29 07:29:20;;;;;;;0.43;0.40;;;;;;;30.26;33.68;95689.97;5055817;28;20056;-65
2022/09/29 07:31:50;;;;;;;0.40;0.38;;;;;;;30.15;34.07;95693.22;5055823;28;20132;-65
2022/09/29 07:34:17;;;;;;;;;;;;;;;30.19;33.75;95691.00;5056144;28;20041;-64
2022/09/29 07:36:44;;;;;;;0.45;0.45;;;;;;;30.17;34.29;95691.19;5055871;28;19943;-66
2022/09/29 07:39:11;;;;;;;1.02;0.40;;;;;;;30.06;34.56;95692.56;5055695;28;20491;-66
2022/09/29 07:41:40;;;;;;;0.43;0.43;;;;;;;30.03;34.14;95690.28;5055639;28;20076;-66
2022/09/29 07:44:09;;;;;;;0.52;0.43;;;;;;;29.52;34.19;95697.69;5055539;28;20041;-64
2022/09/29 07:46:36;;;;;;;0.30;0.30;;;;;;;29.16;35.18;95690.66;5054733;28;20045;-66
2022/09/29 07:49:04;;;;;;;0.40;0.40;;;;;;;28.79;35.53;95701.53;5055436;28;20048;-65
2022/09/29 07:51:31;;;;;;;0.43;0.43;;;;;;;28.83;36.54;95698.25;5055258;28;20475;-64
2022/09/29 07:54:01;;;;;;;1.95;0.85;;;;;;;28.75;35.15;95696.53;5055420;28;20045;-65
2022/09/29 07:56:29;;;;;;;0.57;0.40;;;;;;;28.31;37.47;95703.78;5055292;28;20081;-67
2022/09/29 07:58:57;;;;;;;0.38;0.38;;;;;;;27.75;36.63;95703.34;5055308;28;20088;-65
2022/09/29 08:01:24;;;;;;;0.40;0.40;;;;;;;27.58;39.03;95707.22;5055200;28;20049;-65
2022/09/29 08:03:54;;;;;;;0.73;0.40;;;;;;;27.48;37.62;95702.16;5055232;28;20049;-65
2022/09/29 08:06:21;;;;;;;0.88;0.75;;;;;;;27.60;38.32;95705.19;5054754;28;20599;-65
2022/09/29 08:08:48;;;;;;;1.05;0.60;;;;;;;27.32;38.63;95711.19;5054997;28;20048;-63
2022/09/29 08:11:19;;;;;;;2.55;0.80;;;;;;;27.05;39.00;95717.00;5055077;28;20045;-65
2022/09/29 08:13:46;;;;;;;0.60;0.50;;;;;;;27.12;40.36;95715.25;5055028;28;20088;-65
2022/09/29 08:16:15;;;;;;;0.88;0.70;;;;;;;27.40;40.05;95723.69;5054940;28;20091;-65
2022/09/29 08:18:43;;;;;;;0.70;0.40;;;;;;;27.71;40.36;95723.53;5054909;28;20041;-66
2022/09/29 08:21:11;;;;;;;0.52;0.52;;;;;;;27.95;39.41;95718.03;5054871;28;20049;-64
2022/09/29 08:23:40;;;;;;;0.60;0.60;;;;;;;28.09;38.15;95727.09;5054916;28;20128;-64
2022/09/29 08:26:09;;;;;;;2.17;0.60;;;;;;;28.22;38.16;95731.78;5054741;28;20486;-65
2022/09/29 08:28:38;;;;;;;0.50;0.50;;;;;;;28.18;38.23;95722.44;5054677;28;20060;-65
2022/09/29 08:31:08;;;;;;;0.50;0.50;;;;;;;28.21;38.08;95735.50;5054700;28;20053;-66
2022/09/29 08:33:37;;;;;;;0.98;0.60;;;;;;;28.26;38.90;95741.97;5054688;28;20506;-64
2022/09/29 08:36:13;;;;;;;0.60;0.60;;;;;;;28.31;39.63;95738.75;5054703;28;20384;-65
2022/09/29 08:38:43;;;;;;;0.68;0.65;;;;;;;28.38;38.82;95728.88;5054755;28;20092;-65
2022/09/29 08:41:20;;;;;;;;;;;;;;;28.50;38.07;95737.28;5055024;28;20411;-64
2022/09/29 08:43:49;;;;;;;1.45;0.80;;;;;;;28.60;39.27;95733.44;5054661;28;19925;-65
2022/09/29 08:46:26;;;;;;;0.55;0.45;;;;;;;28.63;38.06;95725.00;5054414;28;20061;-65
2022/09/29 08:48:57;;;;;;;0.30;0.30;;;;;;;28.73;37.99;95733.56;5054304;28;20099;-65
2022/09/29 08:51:28;;;;;;;;;;;;;;;28.73;37.94;95738.09;5054715;28;20053;-65
2022/09/29 08:53:58;;;;;;;0.52;0.52;;;;;;;28.65;36.51;95741.75;5054273;28;19921;-64
2022/09/29 08:56:26;;;;;;;1.70;0.70;;;;;;;28.52;36.77;95745.16;5053990;28;20410;-65
2022/09/29 08:58:53;;;;;;;0.45;0.45;;;;;;;28.51;37.49;95741.63;5053984;28;20052;-66
2022/09/29 09:01:29;;;;;;;1.85;0.68;;;;;;;28.69;38.15;95731.47;5054043;28;20049;-64
2022/09/29 09:04:20;;;;;;;0.77;0.60;;;;;;;28.46;37.65;95733.31;5054089;28;20053;-65
2022/09/29 09:07:00;;;;;;;0.50;0.50;;;;;;;28.54;36.30;95728.81;5053743;28;20053;-64
2022/09/29 09:09:56;;;;;;;0.50;0.50;;;;;;;28.50;36.15;95720.31;5053927;28;20549;-64
2022/09/29 09:12:39;;;;;;;0.40;0.40;;;;;;;27.82;36.00;95727.63;5053907;28;20045;-65
2022/09/29 09:15:21;;;;;;;0.95;0.70;;;;;;;27.55;39.09;95732.59;5053894;28;20088;-64
2022/09/29 09:18:14;;;;;;;0.60;0.60;;;;;;;27.77;39.64;95724.63;5053851;28;20049;-64
2022/09/29 09:20:50;;;;;;;0.60;0.60;;;;;;;27.91;38.88;95722.97;5053778;28;20498;-65
2022/09/29 09:23:22;;;;;;;0.40;0.40;;;;;;;28.04;37.64;95746.47;5053786;28;20107;-64
2022/09/29 09:25:52;;;;;;;0.50;0.50;;;;;;;28.00;38.22;95739.81;5053647;28;20049;-65
2022/09/29 09:28:25;;;;;;;0.40;0.40;;;;;;;28.22;37.85;95747.91;5053661;28;20056;-67
2022/09/29 09:30:57;;;;;;;1.48;0.82;;;;;;;28.22;37.59;95751.44;5053443;28;20049;-65
2022/09/29 09:33:30;;;;;;;0.32;0.32;;;;;;;28.11;37.50;95739.31;5053468;28;20045;-65
2022/09/29 09:36:06;;;;;;;0.50;0.50;;;;;;;28.07;36.75;95737.19;5053476;28;20099;-64
2022/09/29 09:38:46;;;;;;;0.57;0.50;;;;;;;28.05;37.04;95753.50;5053501;28;20053;-66
2022/09/29 09:41:16;;;;;;;1.45;0.52;;;;;;;28.06;37.95;95740.91;5053356;28;20084;-64
2022/09/29 09:43:48;;;;;;;0.60;0.50;;;;;;;28.20;38.64;95739.22;5053484;28;20048;-67
2022/09/29 09:46:22;;;;;;;0.50;0.50;;;;;;;28.29;38.16;95739.94;5053464;28;20632;-65
2022/09/29 09:48:59;;;;;;;0.85;0.73;;;;;;;28.25;38.47;95747.53;5053427;28;20055;-65
2022/09/29 09:51:52;;;;;;;0.45;0.40;;;;;;;28.28;38.02;95749.00;5053318;28;20049;-65
2022/09/29 09:54:30;;;;;;;1.25;1.08;;;;;;;28.02;37.49;95743.13;5051015;28;20449;-66
2022/09/29 09:57:32;;;;;;;0.98;0.60;;;;;;;27.11;37.50;95740.44;5053228;28;20102;-66
2022/09/29 10:00:09;;;;;;;0.63;0.63;;;;;;;27.07;39.54;95739.13;5046158;28;20128;-64
2022/09/29 10:02:41;;;;;;;0.38;0.38;;;;;;;27.08;40.33;95730.06;5052983;28;20087;-64
2022/09/29 10:05:12;;;;;;;0.57;0.57;;;;;;;27.15;40.67;95722.09;5052940;28;20081;-65
2022/09/29 10:07:41;;;;;;;0.40;0.40;;;;;;;27.18;38.55;95723.59;5052851;28;20053;-65
2022/09/29 10:10:17;;;;;;;0.50;0.50;;;;;;;26.96;37.86;95724.25;5052933;28;20052;-65
2022/09/29 10:12:44;;;;;;;0.60;0.60;;;;;;;26.74;39.22;95720.59;5052987;28;20053;-65
2022/09/29 10:15:21;;;;;;;0.65;0.65;;;;;;;26.58;40.97;95725.06;5052940;28;20450;-64
2022/09/29 10:17:56;;;;;;;0.60;0.60;;;;;;;26.71;39.61;95723.66;5052980;28;20099;-66
2022/09/29 10:20:34;;;;;;;0.60;0.60;;;;;;;26.83;41.26;95721.38;5052971;28;20049;-66
2022/09/29 10:23:31;;;;;;;1.05;0.60;;;;;;;26.84;39.59;95713.13;5052940;28;20402;-66
2022/09/29 10:26:02;;;;;;;0.90;0.63;;;;;;;26.67;38.84;95711.63;5052729;28;20048;-66
2022/09/29 10:28:39;;;;;;;2.65;0.60;;;;;;;26.60;39.99;95717.69;5052740;28;20148;-66
2022/09/29 10:31:17;;;;;;;0.75;0.60;;;;;;;26.61;39.56;95715.84;5052909;28;20132;-66
2022/09/29 10:33:50;;;;;;;0.43;0.43;;;;;;;26.54;40.37;95709.53;5052794;28;20107;-65
2022/09/29 10:36:20;;;;;;;0.77;0.70;;;;;;;26.48;39.50;95705.72;5052715;28;20045;-64
2022/09/29 10:38:50;;;;;;;0.47;0.47;;;;;;;26.57;40.39;95701.97;5052742;28;20106;-64
2022/09/29 10:41:18;;;;;;;0.40;0.40;;;;;;;26.86;40.11;95705.75;5052791;28;20136;-66
2022/09/29 10:43:47;;;;;;;0.50;0.50;;;;;;;27.06;41.31;95696.38;5052693;28;20049;-64
2022/09/29 10:46:39;;;;;;;0.70;0.70;;;;;;;27.21;38.59;95699.91;5052534;28;20052;-65
2022/09/29 10:49:13;;;;;;;0.65;0.55;;;;;;;27.23;39.19;95705.09;5052523;28;20061;-64
2022/09/29 10:51:42;;;;;;;0.57;0.57;;;;;;;27.26;36.07;95693.97;5052639;28;20459;-65
2022/09/29 10:54:16;;;;;;;0.50;0.50;;;;;;;27.14;37.92;95695.47;5052636;28;20103;-64
2022/09/29 10:56:47;;;;;;;0.57;0.57;;;;;;;27.10;36.82;95689.63;5052608;28;20060;-65
2022/09/29 10:59:16;;;;;;;1.45;0.60;;;;;;;27.12;37.33;95687.59;5052503;28;20139;-65
2022/09/29 11:01:48;;;;;;;0.57;0.57;;;;;;;27.25;38.04;95690.47;5052632;28;20526;-65
2022/09/29 11:04:20;;;;;;;0.65;0.65;;;;;;;27.32;37.99;95687.03;5052644;28;20053;-64
2022/09/29 11:06:47;;;;;;;0.50;0.50;;;;;;;27.31;36.92;95685.38;5052237;28;20494;-66
2022/09/29 11:09:30;;;;;;;0.50;0.50;;;;;;;27.42;37.00;95679.53;5052585;28;20540;-66
2022/09/29 11:12:00;;;;;;;0.47;0.47;;;;;;;27.47;36.89;95693.25;5052563;28;20395;-64
2022/09/29 11:14:30;;;;;;;1.05;0.90;;;;;;;27.41;36.18;95690.47;5052535;28;20045;-66
2022/09/29 11:17:00;;;;;;;0.63;0.63;;;;;;;27.33;36.47;95680.66;5052458;28;20080;-64
2022/09/29 11:19:29;;;;;;;0.57;0.57;;;;;;;27.40;36.39;95680.75;5052411;28;20131;-64
2022/09/29 11:22:33;;;;;;;1.00;0.50;;;;;;;27.49;36.19;95676.97;5055527;28;20057;-66
2022/09/29 11:25:29;;;;;;;0.68;0.65;;;;;;;27.59;36.00;95665.91;5055940;28;20118;-65
2022/09/29 11:28:21;;;;;;;0.85;0.60;;;;;;;27.71;35.60;95666.28;5055814;28;20061;-64
2022/09/29 11:30:57;;;;;;;0.70;0.70;;;;;;;27.42;36.10;95666.13;5055688;28;20533;-65
2022/09/29 11:33:35;;;;;;;0.65;0.55;;;;;;;27.33;36.16;95678.81;5055803;28;20049;-64
2022/09/29 11:36:09;;;;;;;0.40;0.40;;;;;;;27.37;36.29;95672.06;5055717;28;20045;-65
2022/09/29 11:38:57;;;;;;;2.22;0.40;;;;;;;27.52;36.46;95670.38;5055538;28;20136;-65
2022/09/29 11:41:58;;;;;;;0.35;0.35;;;;;;;27.62;36.25;95668.22;5056853;28;20041;-66
2022/09/29 11:44:44;;;;;;;0.70;0.70;;;;;;;27.43;36.01;95673.16;5055569;28;20080;-65
2022/09/29 11:47:28;;;;;;;0.40;0.40;;;;;;;27.36;35.61;95670.38;5054266;28;20059;-65
2022/09/29 11:50:12;;;;;;;0.68;0.68;;;;;;;27.32;35.71;95665.56;5055551;28;20098;-66
2022/09/29 11:53:11;;;;;;;0.50;0.50;;;;;;;27.44;35.88;95664.09;5055138;28;20080;-64
2022/09/29 11:55:53;;;;;;;0.50;0.50;;;;;;;27.56;36.59;95661.75;5055557;28;20045;-66
2022/09/29 11:58:44;;;;;;;0.50;0.50;;;;;;;27.60;34.22;95665.72;5055286;28;20120;-65